sensor_id;sensor_type;location;lat;lon;timestamp;P1;durP1;ratioP1;P2;durP2;ratioP2
76591;SDS011;65481;47.600;19.682;2024-03-08T00:00:58;27.13;;;11.05;;
76591;SDS011;65481;47.600;19.682;2024-03-08T00:05:59;27.50;;;12.07;;
76591;SDS011;65481;47.600;19.682;2024-03-08T00:10:59;26.73;;;11.63;;
76591;SDS011;65481;47.600;19.682;2024-03-08T00:16:00;29.95;;;12.35;;
76591;SDS011;65481;47.600;19.682;2024-03-08T00:21:00;30.90;;;13.23;;
76591;SDS011;65481;47.600;19.682;2024-03-08T00:26:01;30.30;;;12.07;;
76591;SDS011;65481;47.600;19.682;2024-03-08T00:31:03;28.83;;;12.27;;
76591;SDS011;65481;47.600;19.682;2024-03-08T00:36:04;33.38;;;12.57;;
76591;SDS011;65481;47.600;19.682;2024-03-08T00:41:05;27.73;;;12.18;;
76591;SDS011;65481;47.600;19.682;2024-03-08T00:46:05;33.92;;;13.30;;
76591;SDS011;65481;47.600;19.682;2024-03-08T00:51:05;32.05;;;11.65;;
76591;SDS011;65481;47.600;19.682;2024-03-08T00:56:07;31.88;;;12.95;;
76591;SDS011;65481;47.600;19.682;2024-03-08T01:01:10;29.77;;;12.23;;
76591;SDS011;65481;47.600;19.682;2024-03-08T01:06:10;30.50;;;13.45;;
76591;SDS011;65481;47.600;19.682;2024-03-08T01:11:13;30.40;;;13.18;;
76591;SDS011;65481;47.600;19.682;2024-03-08T01:16:14;30.55;;;12.00;;
76591;SDS011;65481;47.600;19.682;2024-03-08T01:21:14;25.02;;;11.95;;
76591;SDS011;65481;47.600;19.682;2024-03-08T01:26:15;32.55;;;12.88;;
76591;SDS011;65481;47.600;19.682;2024-03-08T01:31:16;28.77;;;12.50;;
76591;SDS011;65481;47.600;19.682;2024-03-08T01:36:16;29.85;;;12.75;;
76591;SDS011;65481;47.600;19.682;2024-03-08T01:41:19;26.70;;;11.13;;
76591;SDS011;65481;47.600;19.682;2024-03-08T01:46:20;27.35;;;12.13;;
76591;SDS011;65481;47.600;19.682;2024-03-08T01:51:22;27.67;;;11.98;;
76591;SDS011;65481;47.600;19.682;2024-03-08T01:56:23;32.40;;;12.73;;
76591;SDS011;65481;47.600;19.682;2024-03-08T02:01:25;29.73;;;11.57;;
76591;SDS011;65481;47.600;19.682;2024-03-08T02:06:25;30.67;;;12.23;;
76591;SDS011;65481;47.600;19.682;2024-03-08T02:11:26;28.50;;;12.35;;
76591;SDS011;65481;47.600;19.682;2024-03-08T02:16:27;30.33;;;12.00;;
76591;SDS011;65481;47.600;19.682;2024-03-08T02:21:28;27.00;;;11.23;;
76591;SDS011;65481;47.600;19.682;2024-03-08T02:26:29;29.63;;;12.27;;
76591;SDS011;65481;47.600;19.682;2024-03-08T02:31:30;30.45;;;12.88;;
76591;SDS011;65481;47.600;19.682;2024-03-08T02:36:31;29.67;;;11.35;;
76591;SDS011;65481;47.600;19.682;2024-03-08T02:41:35;25.35;;;11.27;;
76591;SDS011;65481;47.600;19.682;2024-03-08T02:46:35;30.17;;;12.35;;
76591;SDS011;65481;47.600;19.682;2024-03-08T02:51:36;32.05;;;11.60;;
76591;SDS011;65481;47.600;19.682;2024-03-08T02:56:36;29.58;;;12.50;;
76591;SDS011;65481;47.600;19.682;2024-03-08T03:01:37;29.52;;;11.98;;
76591;SDS011;65481;47.600;19.682;2024-03-08T03:06:38;27.40;;;11.60;;
76591;SDS011;65481;47.600;19.682;2024-03-08T03:11:39;26.92;;;10.95;;
76591;SDS011;65481;47.600;19.682;2024-03-08T03:16:39;30.98;;;11.90;;
76591;SDS011;65481;47.600;19.682;2024-03-08T03:21:40;32.20;;;13.27;;
76591;SDS011;65481;47.600;19.682;2024-03-08T03:26:43;29.27;;;12.27;;
76591;SDS011;65481;47.600;19.682;2024-03-08T03:31:43;30.23;;;12.43;;
76591;SDS011;65481;47.600;19.682;2024-03-08T03:36:47;30.25;;;12.20;;
76591;SDS011;65481;47.600;19.682;2024-03-08T03:41:48;25.63;;;11.68;;
76591;SDS011;65481;47.600;19.682;2024-03-08T03:46:52;27.50;;;10.73;;
76591;SDS011;65481;47.600;19.682;2024-03-08T03:51:52;27.83;;;11.65;;
76591;SDS011;65481;47.600;19.682;2024-03-08T03:56:52;28.17;;;11.63;;
76591;SDS011;65481;47.600;19.682;2024-03-08T04:01:53;26.38;;;12.70;;
76591;SDS011;65481;47.600;19.682;2024-03-08T04:06:54;29.17;;;10.90;;
76591;SDS011;65481;47.600;19.682;2024-03-08T04:11:55;32.67;;;12.43;;
76591;SDS011;65481;47.600;19.682;2024-03-08T04:16:56;33.28;;;11.98;;
76591;SDS011;65481;47.600;19.682;2024-03-08T04:21:57;28.83;;;12.50;;
76591;SDS011;65481;47.600;19.682;2024-03-08T04:26:57;33.22;;;13.00;;
76591;SDS011;65481;47.600;19.682;2024-03-08T04:31:58;35.20;;;11.90;;
76591;SDS011;65481;47.600;19.682;2024-03-08T04:36:59;31.58;;;12.23;;
76591;SDS011;65481;47.600;19.682;2024-03-08T04:42:02;29.65;;;11.77;;
76591;SDS011;65481;47.600;19.682;2024-03-08T04:47:09;35.47;;;13.43;;
76591;SDS011;65481;47.600;19.682;2024-03-08T04:52:11;25.20;;;11.85;;
76591;SDS011;65481;47.600;19.682;2024-03-08T04:57:12;28.02;;;11.43;;
76591;SDS011;65481;47.600;19.682;2024-03-08T05:02:12;26.42;;;11.25;;
76591;SDS011;65481;47.600;19.682;2024-03-08T05:07:13;29.83;;;11.70;;
76591;SDS011;65481;47.600;19.682;2024-03-08T05:12:13;29.90;;;11.70;;
76591;SDS011;65481;47.600;19.682;2024-03-08T05:17:14;58.42;;;20.13;;
76591;SDS011;65481;47.600;19.682;2024-03-08T05:22:14;60.50;;;24.70;;
76591;SDS011;65481;47.600;19.682;2024-03-08T05:27:15;41.95;;;17.60;;
76591;SDS011;65481;47.600;19.682;2024-03-08T05:32:16;34.95;;;15.50;;
76591;SDS011;65481;47.600;19.682;2024-03-08T05:37:16;26.13;;;12.90;;
76591;SDS011;65481;47.600;19.682;2024-03-08T05:42:17;31.17;;;11.70;;
76591;SDS011;65481;47.600;19.682;2024-03-08T05:47:17;31.15;;;12.45;;
76591;SDS011;65481;47.600;19.682;2024-03-08T05:52:18;36.47;;;13.10;;
76591;SDS011;65481;47.600;19.682;2024-03-08T05:57:19;27.38;;;11.27;;
76591;SDS011;65481;47.600;19.682;2024-03-08T06:02:19;26.92;;;10.98;;
76591;SDS011;65481;47.600;19.682;2024-03-08T06:07:20;27.58;;;11.32;;
76591;SDS011;65481;47.600;19.682;2024-03-08T06:12:20;27.25;;;11.40;;
76591;SDS011;65481;47.600;19.682;2024-03-08T06:17:21;24.30;;;11.93;;
76591;SDS011;65481;47.600;19.682;2024-03-08T06:22:25;26.38;;;11.60;;
76591;SDS011;65481;47.600;19.682;2024-03-08T06:27:26;29.58;;;11.35;;
76591;SDS011;65481;47.600;19.682;2024-03-08T06:32:26;30.05;;;11.15;;
76591;SDS011;65481;47.600;19.682;2024-03-08T06:37:26;25.45;;;10.68;;
76591;SDS011;65481;47.600;19.682;2024-03-08T06:42:27;33.95;;;13.07;;
76591;SDS011;65481;47.600;19.682;2024-03-08T06:47:35;26.83;;;11.13;;
76591;SDS011;65481;47.600;19.682;2024-03-08T06:52:36;31.10;;;10.93;;
76591;SDS011;65481;47.600;19.682;2024-03-08T06:57:36;32.30;;;12.27;;
76591;SDS011;65481;47.600;19.682;2024-03-08T07:02:40;29.05;;;12.63;;
76591;SDS011;65481;47.600;19.682;2024-03-08T07:07:41;27.58;;;11.43;;
76591;SDS011;65481;47.600;19.682;2024-03-08T07:12:42;24.08;;;11.73;;
76591;SDS011;65481;47.600;19.682;2024-03-08T07:17:43;25.58;;;11.38;;
76591;SDS011;65481;47.600;19.682;2024-03-08T07:22:47;23.77;;;10.93;;
76591;SDS011;65481;47.600;19.682;2024-03-08T07:27:51;29.27;;;11.70;;
76591;SDS011;65481;47.600;19.682;2024-03-08T07:32:52;31.40;;;11.98;;
76591;SDS011;65481;47.600;19.682;2024-03-08T07:37:53;32.13;;;12.05;;
76591;SDS011;65481;47.600;19.682;2024-03-08T07:42:59;31.58;;;12.50;;
76591;SDS011;65481;47.600;19.682;2024-03-08T07:48:00;29.13;;;12.32;;
76591;SDS011;65481;47.600;19.682;2024-03-08T07:53:00;33.78;;;12.60;;
76591;SDS011;65481;47.600;19.682;2024-03-08T07:58:03;28.42;;;12.23;;
76591;SDS011;65481;47.600;19.682;2024-03-08T08:03:04;25.65;;;11.23;;
76591;SDS011;65481;47.600;19.682;2024-03-08T08:08:05;28.17;;;11.77;;
76591;SDS011;65481;47.600;19.682;2024-03-08T08:13:08;30.40;;;13.05;;
76591;SDS011;65481;47.600;19.682;2024-03-08T08:18:08;47.63;;;17.50;;
76591;SDS011;65481;47.600;19.682;2024-03-08T08:23:09;31.20;;;13.38;;
76591;SDS011;65481;47.600;19.682;2024-03-08T08:28:12;29.38;;;13.48;;
76591;SDS011;65481;47.600;19.682;2024-03-08T08:33:12;30.08;;;12.40;;
76591;SDS011;65481;47.600;19.682;2024-03-08T08:38:13;51.03;;;15.82;;
76591;SDS011;65481;47.600;19.682;2024-03-08T08:43:15;30.83;;;13.27;;
76591;SDS011;65481;47.600;19.682;2024-03-08T08:48:15;33.75;;;13.95;;
76591;SDS011;65481;47.600;19.682;2024-03-08T08:53:16;25.20;;;12.43;;
76591;SDS011;65481;47.600;19.682;2024-03-08T08:58:17;25.75;;;11.90;;
76591;SDS011;65481;47.600;19.682;2024-03-08T09:03:18;33.40;;;13.15;;
76591;SDS011;65481;47.600;19.682;2024-03-08T09:08:18;35.33;;;13.40;;
76591;SDS011;65481;47.600;19.682;2024-03-08T09:13:19;40.75;;;16.33;;
76591;SDS011;65481;47.600;19.682;2024-03-08T09:18:20;50.63;;;20.67;;
76591;SDS011;65481;47.600;19.682;2024-03-08T09:23:20;37.28;;;15.68;;
76591;SDS011;65481;47.600;19.682;2024-03-08T09:28:21;30.70;;;13.48;;
76591;SDS011;65481;47.600;19.682;2024-03-08T09:33:21;34.88;;;13.15;;
76591;SDS011;65481;47.600;19.682;2024-03-08T09:38:22;32.35;;;12.35;;
76591;SDS011;65481;47.600;19.682;2024-03-08T09:43:23;29.65;;;12.98;;
76591;SDS011;65481;47.600;19.682;2024-03-08T09:48:24;31.52;;;12.05;;
76591;SDS011;65481;47.600;19.682;2024-03-08T09:53:26;26.10;;;11.75;;
76591;SDS011;65481;47.600;19.682;2024-03-08T09:58:26;30.55;;;12.90;;
76591;SDS011;65481;47.600;19.682;2024-03-08T10:03:32;34.78;;;12.73;;
76591;SDS011;65481;47.600;19.682;2024-03-08T10:08:33;38.00;;;16.02;;
76591;SDS011;65481;47.600;19.682;2024-03-08T10:13:34;32.65;;;13.05;;
76591;SDS011;65481;47.600;19.682;2024-03-08T10:18:34;32.22;;;13.13;;
76591;SDS011;65481;47.600;19.682;2024-03-08T10:23:36;29.70;;;13.38;;
76591;SDS011;65481;47.600;19.682;2024-03-08T10:28:37;30.65;;;12.13;;
76591;SDS011;65481;47.600;19.682;2024-03-08T10:33:38;32.92;;;12.55;;
76591;SDS011;65481;47.600;19.682;2024-03-08T10:38:39;29.48;;;11.18;;
76591;SDS011;65481;47.600;19.682;2024-03-08T10:43:50;34.83;;;13.13;;
76591;SDS011;65481;47.600;19.682;2024-03-08T10:49:08;37.13;;;15.40;;
76591;SDS011;65481;47.600;19.682;2024-03-08T10:54:17;30.13;;;12.40;;
76591;SDS011;65481;47.600;19.682;2024-03-08T10:59:21;30.98;;;12.48;;
76591;SDS011;65481;47.600;19.682;2024-03-08T11:04:23;31.80;;;13.40;;
76591;SDS011;65481;47.600;19.682;2024-03-08T11:09:28;33.40;;;12.52;;
76591;SDS011;65481;47.600;19.682;2024-03-08T11:14:45;37.08;;;14.43;;
76591;SDS011;65481;47.600;19.682;2024-03-08T11:19:49;35.85;;;14.27;;
76591;SDS011;65481;47.600;19.682;2024-03-08T11:24:52;29.83;;;11.98;;
76591;SDS011;65481;47.600;19.682;2024-03-08T11:30:03;27.20;;;12.07;;
76591;SDS011;65481;47.600;19.682;2024-03-08T11:35:20;85.57;;;26.45;;
76591;SDS011;65481;47.600;19.682;2024-03-08T11:40:23;56.92;;;17.55;;
76591;SDS011;65481;47.600;19.682;2024-03-08T11:45:23;31.15;;;13.05;;
76591;SDS011;65481;47.600;19.682;2024-03-08T11:50:25;31.60;;;13.50;;
76591;SDS011;65481;47.600;19.682;2024-03-08T11:55:26;33.97;;;12.88;;
76591;SDS011;65481;47.600;19.682;2024-03-08T12:00:26;38.70;;;15.23;;
76591;SDS011;65481;47.600;19.682;2024-03-08T12:05:33;47.83;;;15.88;;
76591;SDS011;65481;47.600;19.682;2024-03-08T12:10:34;48.58;;;17.38;;
76591;SDS011;65481;47.600;19.682;2024-03-08T12:15:35;40.83;;;16.85;;
76591;SDS011;65481;47.600;19.682;2024-03-08T12:20:36;55.38;;;18.05;;
76591;SDS011;65481;47.600;19.682;2024-03-08T12:25:36;45.35;;;17.40;;
76591;SDS011;65481;47.600;19.682;2024-03-08T12:30:43;35.42;;;14.55;;
76591;SDS011;65481;47.600;19.682;2024-03-08T12:35:50;32.13;;;14.45;;
76591;SDS011;65481;47.600;19.682;2024-03-08T12:40:55;42.85;;;17.33;;
76591;SDS011;65481;47.600;19.682;2024-03-08T12:45:57;50.53;;;19.98;;
76591;SDS011;65481;47.600;19.682;2024-03-08T12:50:57;34.45;;;14.85;;
76591;SDS011;65481;47.600;19.682;2024-03-08T12:55:58;39.78;;;15.63;;
76591;SDS011;65481;47.600;19.682;2024-03-08T13:00:59;40.33;;;16.48;;
76591;SDS011;65481;47.600;19.682;2024-03-08T13:06:00;43.00;;;17.77;;
76591;SDS011;65481;47.600;19.682;2024-03-08T13:11:01;67.20;;;22.20;;
76591;SDS011;65481;47.600;19.682;2024-03-08T13:16:03;33.90;;;15.68;;
76591;SDS011;65481;47.600;19.682;2024-03-08T13:21:08;31.15;;;12.80;;
76591;SDS011;65481;47.600;19.682;2024-03-08T13:26:10;40.35;;;16.38;;
76591;SDS011;65481;47.600;19.682;2024-03-08T13:31:15;33.30;;;13.48;;
76591;SDS011;65481;47.600;19.682;2024-03-08T13:36:15;31.65;;;13.73;;
76591;SDS011;65481;47.600;19.682;2024-03-08T13:41:16;36.90;;;14.30;;
76591;SDS011;65481;47.600;19.682;2024-03-08T13:46:17;49.90;;;18.42;;
76591;SDS011;65481;47.600;19.682;2024-03-08T13:51:17;92.78;;;32.33;;
76591;SDS011;65481;47.600;19.682;2024-03-08T13:56:18;69.03;;;22.13;;
76591;SDS011;65481;47.600;19.682;2024-03-08T14:01:18;40.38;;;16.15;;
76591;SDS011;65481;47.600;19.682;2024-03-08T14:06:20;36.47;;;15.55;;
76591;SDS011;65481;47.600;19.682;2024-03-08T14:11:24;59.33;;;20.83;;
76591;SDS011;65481;47.600;19.682;2024-03-08T14:16:24;36.22;;;15.13;;
76591;SDS011;65481;47.600;19.682;2024-03-08T14:21:26;36.53;;;14.75;;
76591;SDS011;65481;47.600;19.682;2024-03-08T14:26:26;33.22;;;13.60;;
76591;SDS011;65481;47.600;19.682;2024-03-08T14:31:27;49.55;;;17.15;;
76591;SDS011;65481;47.600;19.682;2024-03-08T14:36:28;39.88;;;15.45;;
76591;SDS011;65481;47.600;19.682;2024-03-08T14:41:29;38.70;;;13.93;;
76591;SDS011;65481;47.600;19.682;2024-03-08T14:46:30;38.30;;;16.50;;
76591;SDS011;65481;47.600;19.682;2024-03-08T14:51:30;43.13;;;17.58;;
76591;SDS011;65481;47.600;19.682;2024-03-08T14:56:32;50.72;;;18.08;;
76591;SDS011;65481;47.600;19.682;2024-03-08T15:01:33;29.05;;;12.43;;
76591;SDS011;65481;47.600;19.682;2024-03-08T15:06:36;35.20;;;14.27;;
76591;SDS011;65481;47.600;19.682;2024-03-08T15:11:38;39.42;;;15.05;;
76591;SDS011;65481;47.600;19.682;2024-03-08T15:16:39;33.10;;;14.95;;
76591;SDS011;65481;47.600;19.682;2024-03-08T15:21:43;38.13;;;13.75;;
76591;SDS011;65481;47.600;19.682;2024-03-08T15:26:48;54.97;;;19.92;;
76591;SDS011;65481;47.600;19.682;2024-03-08T15:31:51;51.28;;;19.55;;
76591;SDS011;65481;47.600;19.682;2024-03-08T15:36:53;40.50;;;15.10;;
76591;SDS011;65481;47.600;19.682;2024-03-08T15:41:54;30.38;;;12.60;;
76591;SDS011;65481;47.600;19.682;2024-03-08T15:46:55;35.45;;;14.65;;
76591;SDS011;65481;47.600;19.682;2024-03-08T15:51:56;34.95;;;12.73;;
76591;SDS011;65481;47.600;19.682;2024-03-08T15:56:56;31.05;;;13.85;;
76591;SDS011;65481;47.600;19.682;2024-03-08T16:01:57;32.00;;;13.25;;
76591;SDS011;65481;47.600;19.682;2024-03-08T16:06:58;44.38;;;14.98;;
76591;SDS011;65481;47.600;19.682;2024-03-08T16:11:59;39.10;;;14.95;;
76591;SDS011;65481;47.600;19.682;2024-03-08T16:16:59;43.28;;;17.33;;
76591;SDS011;65481;47.600;19.682;2024-03-08T16:22:01;58.33;;;21.30;;
76591;SDS011;65481;47.600;19.682;2024-03-08T16:27:01;44.60;;;17.55;;
76591;SDS011;65481;47.600;19.682;2024-03-08T16:32:02;57.42;;;21.90;;
76591;SDS011;65481;47.600;19.682;2024-03-08T16:37:04;55.28;;;20.23;;
76591;SDS011;65481;47.600;19.682;2024-03-08T16:42:04;57.80;;;19.50;;
76591;SDS011;65481;47.600;19.682;2024-03-08T16:47:07;52.47;;;18.00;;
76591;SDS011;65481;47.600;19.682;2024-03-08T16:52:08;58.65;;;20.08;;
76591;SDS011;65481;47.600;19.682;2024-03-08T16:57:08;45.33;;;18.15;;
76591;SDS011;65481;47.600;19.682;2024-03-08T17:02:14;63.72;;;35.67;;
76591;SDS011;65481;47.600;19.682;2024-03-08T17:07:14;65.22;;;25.27;;
76591;SDS011;65481;47.600;19.682;2024-03-08T17:12:15;68.18;;;25.17;;
76591;SDS011;65481;47.600;19.682;2024-03-08T17:17:19;62.45;;;21.30;;
76591;SDS011;65481;47.600;19.682;2024-03-08T17:22:20;63.50;;;31.85;;
76591;SDS011;65481;47.600;19.682;2024-03-08T17:27:21;47.00;;;26.83;;
76591;SDS011;65481;47.600;19.682;2024-03-08T17:32:24;39.97;;;19.17;;
76591;SDS011;65481;47.600;19.682;2024-03-08T17:37:25;44.80;;;20.63;;
76591;SDS011;65481;47.600;19.682;2024-03-08T17:42:25;44.97;;;21.90;;
76591;SDS011;65481;47.600;19.682;2024-03-08T17:47:26;49.20;;;20.95;;
76591;SDS011;65481;47.600;19.682;2024-03-08T17:52:26;41.50;;;18.13;;
76591;SDS011;65481;47.600;19.682;2024-03-08T17:57:27;38.10;;;16.58;;
76591;SDS011;65481;47.600;19.682;2024-03-08T18:02:27;38.22;;;15.95;;
76591;SDS011;65481;47.600;19.682;2024-03-08T18:07:28;46.05;;;17.15;;
76591;SDS011;65481;47.600;19.682;2024-03-08T18:12:29;43.63;;;16.70;;
76591;SDS011;65481;47.600;19.682;2024-03-08T18:17:30;35.85;;;16.02;;
76591;SDS011;65481;47.600;19.682;2024-03-08T18:22:31;40.47;;;16.88;;
76591;SDS011;65481;47.600;19.682;2024-03-08T18:27:32;39.38;;;15.00;;
76591;SDS011;65481;47.600;19.682;2024-03-08T18:32:33;35.75;;;14.95;;
76591;SDS011;65481;47.600;19.682;2024-03-08T18:37:34;44.63;;;21.15;;
76591;SDS011;65481;47.600;19.682;2024-03-08T18:42:34;45.05;;;19.75;;
76591;SDS011;65481;47.600;19.682;2024-03-08T18:47:35;40.05;;;17.20;;
76591;SDS011;65481;47.600;19.682;2024-03-08T18:52:36;40.08;;;16.48;;
76591;SDS011;65481;47.600;19.682;2024-03-08T18:57:37;30.40;;;14.07;;
76591;SDS011;65481;47.600;19.682;2024-03-08T19:02:40;36.60;;;14.70;;
76591;SDS011;65481;47.600;19.682;2024-03-08T19:07:42;36.90;;;13.88;;
76591;SDS011;65481;47.600;19.682;2024-03-08T19:12:44;31.67;;;13.63;;
76591;SDS011;65481;47.600;19.682;2024-03-08T19:17:55;39.78;;;16.98;;
76591;SDS011;65481;47.600;19.682;2024-03-08T19:22:56;35.83;;;15.65;;
76591;SDS011;65481;47.600;19.682;2024-03-08T19:28:03;35.63;;;15.70;;
76591;SDS011;65481;47.600;19.682;2024-03-08T19:38:11;33.05;;;13.80;;
76591;SDS011;65481;47.600;19.682;2024-03-08T19:43:12;35.70;;;16.08;;
76591;SDS011;65481;47.600;19.682;2024-03-08T19:48:15;31.45;;;13.80;;
76591;SDS011;65481;47.600;19.682;2024-03-08T19:53:20;31.55;;;13.25;;
76591;SDS011;65481;47.600;19.682;2024-03-08T19:58:22;35.42;;;14.52;;
76591;SDS011;65481;47.600;19.682;2024-03-08T20:03:23;37.53;;;15.60;;
76591;SDS011;65481;47.600;19.682;2024-03-08T20:08:24;38.58;;;14.95;;
76591;SDS011;65481;47.600;19.682;2024-03-08T20:13:28;32.53;;;13.45;;
76591;SDS011;65481;47.600;19.682;2024-03-08T20:18:28;35.67;;;14.13;;
76591;SDS011;65481;47.600;19.682;2024-03-08T20:23:29;34.90;;;13.75;;
76591;SDS011;65481;47.600;19.682;2024-03-08T20:28:29;37.17;;;14.50;;
76591;SDS011;65481;47.600;19.682;2024-03-08T20:33:32;32.10;;;14.05;;
76591;SDS011;65481;47.600;19.682;2024-03-08T20:38:32;37.22;;;14.88;;
76591;SDS011;65481;47.600;19.682;2024-03-08T20:43:33;32.72;;;13.50;;
76591;SDS011;65481;47.600;19.682;2024-03-08T20:48:37;36.70;;;13.13;;
76591;SDS011;65481;47.600;19.682;2024-03-08T20:53:40;31.73;;;12.63;;
76591;SDS011;65481;47.600;19.682;2024-03-08T20:58:40;30.35;;;13.68;;
76591;SDS011;65481;47.600;19.682;2024-03-08T21:03:41;33.88;;;13.48;;
76591;SDS011;65481;47.600;19.682;2024-03-08T21:08:41;34.25;;;14.18;;
76591;SDS011;65481;47.600;19.682;2024-03-08T21:13:42;35.75;;;13.20;;
76591;SDS011;65481;47.600;19.682;2024-03-08T21:18:42;30.77;;;13.27;;
76591;SDS011;65481;47.600;19.682;2024-03-08T21:23:43;30.38;;;12.45;;
76591;SDS011;65481;47.600;19.682;2024-03-08T21:28:43;42.33;;;14.15;;
76591;SDS011;65481;47.600;19.682;2024-03-08T21:33:44;27.25;;;13.35;;
76591;SDS011;65481;47.600;19.682;2024-03-08T21:38:44;34.63;;;14.30;;
76591;SDS011;65481;47.600;19.682;2024-03-08T21:43:45;31.17;;;14.20;;
76591;SDS011;65481;47.600;19.682;2024-03-08T21:48:45;29.58;;;12.73;;
76591;SDS011;65481;47.600;19.682;2024-03-08T21:53:47;34.38;;;14.07;;
76591;SDS011;65481;47.600;19.682;2024-03-08T21:58:47;35.33;;;12.98;;
76591;SDS011;65481;47.600;19.682;2024-03-08T22:03:48;35.80;;;13.27;;
76591;SDS011;65481;47.600;19.682;2024-03-08T22:08:49;30.30;;;13.68;;
76591;SDS011;65481;47.600;19.682;2024-03-08T22:13:50;33.38;;;13.80;;
76591;SDS011;65481;47.600;19.682;2024-03-08T22:18:50;32.85;;;14.15;;
76591;SDS011;65481;47.600;19.682;2024-03-08T22:23:53;32.03;;;13.63;;
76591;SDS011;65481;47.600;19.682;2024-03-08T22:28:56;36.13;;;13.93;;
76591;SDS011;65481;47.600;19.682;2024-03-08T22:33:56;34.05;;;13.60;;
76591;SDS011;65481;47.600;19.682;2024-03-08T22:38:57;31.40;;;12.80;;
76591;SDS011;65481;47.600;19.682;2024-03-08T22:43:57;31.30;;;13.07;;
76591;SDS011;65481;47.600;19.682;2024-03-08T22:48:58;36.67;;;14.48;;
76591;SDS011;65481;47.600;19.682;2024-03-08T22:53:58;34.47;;;13.98;;
76591;SDS011;65481;47.600;19.682;2024-03-08T22:59:00;34.15;;;14.43;;
76591;SDS011;65481;47.600;19.682;2024-03-08T23:04:02;35.25;;;14.80;;
76591;SDS011;65481;47.600;19.682;2024-03-08T23:09:02;35.13;;;13.77;;
76591;SDS011;65481;47.600;19.682;2024-03-08T23:14:03;33.92;;;14.07;;
76591;SDS011;65481;47.600;19.682;2024-03-08T23:19:06;28.33;;;12.45;;
76591;SDS011;65481;47.600;19.682;2024-03-08T23:24:07;33.03;;;13.50;;
76591;SDS011;65481;47.600;19.682;2024-03-08T23:29:10;31.63;;;12.55;;
76591;SDS011;65481;47.600;19.682;2024-03-08T23:34:11;31.30;;;13.15;;
76591;SDS011;65481;47.600;19.682;2024-03-08T23:39:12;35.58;;;13.57;;
76591;SDS011;65481;47.600;19.682;2024-03-08T23:44:13;36.28;;;14.68;;
76591;SDS011;65481;47.600;19.682;2024-03-08T23:49:14;32.10;;;14.40;;
76591;SDS011;65481;47.600;19.682;2024-03-08T23:54:17;36.08;;;14.40;;
76591;SDS011;65481;47.600;19.682;2024-03-08T23:59:22;38.03;;;13.82;;
